createdAt,value
2022-08-17T00:01:51.945Z,86.16
2022-08-17T00:04:22.310Z,86.31
2022-08-17T00:06:53.369Z,85.30
2022-08-17T00:09:25.845Z,85.79
2022-08-17T00:12:40.985Z,86.56
2022-08-17T00:14:45.307Z,86.17
2022-08-17T00:17:14.980Z,86.12
2022-08-17T00:19:44.721Z,86.63
2022-08-17T00:22:31.782Z,86.36
2022-08-17T00:25:09.734Z,86.99
2022-08-17T00:27:39.636Z,86.96
2022-08-17T00:30:12.054Z,87.23
2022-08-17T00:33:14.415Z,87.23
2022-08-17T00:35:32.951Z,87.17
2022-08-17T00:38:04.175Z,86.97
2022-08-17T00:40:39.856Z,88.21
2022-08-17T00:43:19.475Z,88.18
2022-08-17T00:45:49.795Z,87.87
2022-08-17T00:48:29.239Z,88.15
2022-08-17T00:51:02.484Z,88.56
2022-08-17T00:53:33.766Z,88.48
2022-08-17T00:56:09.340Z,88.85
2022-08-17T00:58:40.081Z,88.93
2022-08-17T01:01:11.190Z,88.91
2022-08-17T01:03:43.301Z,88.92
2022-08-17T01:06:13.545Z,89.12
2022-08-17T01:08:43.453Z,89.28
2022-08-17T01:11:17.260Z,88.85
2022-08-17T01:13:48.322Z,89.24
2022-08-17T01:16:21.051Z,89.39
2022-08-17T01:18:53.326Z,89.26
2022-08-17T01:21:35.359Z,89.05
2022-08-17T01:24:08.460Z,89.54
2022-08-17T01:26:41.186Z,89.74
2022-08-17T01:29:11.494Z,89.57
2022-08-17T01:31:44.413Z,89.83
2022-08-17T01:34:16.877Z,90.06
2022-08-17T01:36:49.354Z,90.29
2022-08-17T01:39:34.436Z,89.90
2022-08-17T01:42:08.986Z,90.31
2022-08-17T01:44:40.021Z,90.53
2022-08-17T01:47:09.722Z,90.77
2022-08-17T01:49:39.364Z,90.64
2022-08-17T01:52:10.558Z,90.67
2022-08-17T01:54:44.719Z,90.98
2022-08-17T01:57:14.648Z,91.12
2022-08-17T01:59:44.292Z,91.11
2022-08-17T02:02:31.231Z,90.79
2022-08-17T02:05:01.505Z,90.81
2022-08-17T02:07:31.236Z,90.99
2022-08-17T02:10:03.563Z,90.92
2022-08-17T02:12:46.398Z,90.92
2022-08-17T02:15:16.008Z,91.27
2022-08-17T02:17:46.211Z,91.17
2022-08-17T02:20:16.117Z,90.82
2022-08-17T02:23:06.425Z,91.58
2022-08-17T02:25:40.399Z,92.01
2022-08-17T02:28:10.096Z,91.58
2022-08-17T02:31:01.946Z,91.65
2022-08-17T02:33:42.196Z,91.92
2022-08-17T02:36:14.923Z,92.20
2022-08-17T02:38:45.059Z,91.96
2022-08-17T02:41:17.331Z,91.62
2022-08-17T02:43:47.013Z,91.54
2022-08-17T02:46:16.670Z,91.87
2022-08-17T02:48:46.362Z,92.25
2022-08-17T02:51:16.027Z,92.91
2022-08-17T02:53:46.772Z,93.04
2022-08-17T02:56:19.073Z,92.38
2022-08-17T02:58:49.217Z,92.53
2022-08-17T03:01:19.354Z,92.79
2022-08-17T03:03:49.057Z,92.35
2022-08-17T03:06:19.250Z,92.13
2022-08-17T03:08:48.925Z,92.65
2022-08-17T03:11:21.303Z,93.29
2022-08-17T03:13:51.099Z,93.09
2022-08-17T03:16:20.858Z,93.17
2022-08-17T03:18:50.549Z,92.76
2022-08-17T03:21:20.227Z,93.32
2022-08-17T03:23:49.881Z,93.33
2022-08-17T03:26:29.783Z,93.46
2022-08-17T03:28:59.714Z,93.84
2022-08-17T03:31:29.360Z,94.02
2022-08-17T03:33:59.176Z,94.32
2022-08-17T03:36:29.629Z,94.09
2022-08-17T03:39:01.044Z,94.20
2022-08-17T03:41:33.451Z,93.95
2022-08-17T03:44:03.364Z,94.19
2022-08-17T03:46:45.467Z,94.14
2022-08-17T03:49:27.570Z,94.32
2022-08-17T03:52:10.555Z,94.32
2022-08-17T03:54:52.717Z,94.00
2022-08-17T03:57:25.020Z,94.23
2022-08-17T03:59:54.725Z,94.30
2022-08-17T04:02:26.738Z,94.20
2022-08-17T04:04:56.929Z,94.13
2022-08-17T04:07:29.361Z,94.27
2022-08-17T04:09:59.667Z,94.54
2022-08-17T04:12:33.603Z,94.46
2022-08-17T04:15:03.873Z,94.62
2022-08-17T04:17:34.168Z,94.75
2022-08-17T04:20:04.511Z,94.42
2022-08-17T04:22:35.258Z,94.43
2022-08-17T04:25:08.343Z,95.11
2022-08-17T04:27:48.329Z,95.04
2022-08-17T04:30:18.565Z,95.38
2022-08-17T04:33:05.147Z,95.46
2022-08-17T04:35:39.224Z,95.80
2022-08-17T04:38:09.574Z,96.01
2022-08-17T04:40:51.741Z,96.03
2022-08-17T04:43:25.813Z,95.87
2022-08-17T04:45:57.583Z,96.05
2022-08-17T04:48:35.718Z,96.19
2022-08-17T04:51:09.521Z,96.27
2022-08-17T04:53:39.471Z,95.85
2022-08-17T04:56:11.707Z,96.77
2022-08-17T04:58:53.125Z,96.25
2022-08-17T05:01:24.885Z,96.40
2022-08-17T05:03:56.074Z,96.22
2022-08-17T05:06:26.477Z,96.81
2022-08-17T05:08:56.789Z,96.57
2022-08-17T05:11:26.809Z,96.45
2022-08-17T05:14:00.741Z,95.85
2022-08-17T05:16:32.048Z,96.28
2022-08-17T05:19:02.682Z,96.21
2022-08-17T05:21:32.425Z,96.60
2022-08-17T05:24:03.745Z,96.42
2022-08-17T05:26:39.385Z,97.31
2022-08-17T05:29:13.918Z,97.14
2022-08-17T05:31:43.630Z,97.60
2022-08-17T05:34:13.329Z,98.25
2022-08-17T05:36:44.618Z,98.46
2022-08-17T05:39:17.336Z,98.66
2022-08-17T05:41:50.601Z,98.33
2022-08-17T05:44:22.844Z,97.56
2022-08-17T05:46:54.419Z,98.42
2022-08-17T05:49:29.860Z,97.33
2022-08-17T05:52:20.001Z,97.19
2022-08-17T05:54:57.932Z,97.08
2022-08-17T05:57:39.575Z,97.58
2022-08-17T06:00:20.368Z,95.41
2022-08-17T06:03:00.644Z,94.65
2022-08-17T06:05:53.209Z,95.82
2022-08-17T06:08:29.120Z,95.84
2022-08-17T06:11:04.553Z,96.33
2022-08-17T06:13:54.497Z,95.67
2022-08-17T06:16:34.027Z,95.34
2022-08-17T06:19:07.313Z,95.17
2022-08-17T06:21:40.511Z,95.53
2022-08-17T06:24:15.951Z,96.20
2022-08-17T06:26:46.948Z,97.02
2022-08-17T06:29:23.986Z,97.32
2022-08-17T06:31:56.972Z,96.81
2022-08-17T06:34:26.800Z,97.53
2022-08-17T06:37:01.032Z,97.26
2022-08-17T06:39:42.099Z,97.30
2022-08-17T06:42:54.713Z,97.76
2022-08-17T06:45:15.133Z,97.77
2022-08-17T06:47:52.468Z,97.64
2022-08-17T06:50:26.432Z,98.27
2022-08-17T06:53:01.060Z,98.48
2022-08-17T06:55:38.322Z,98.15
2022-08-17T06:58:16.155Z,99.66
2022-08-17T07:00:48.673Z,97.79
2022-08-17T07:03:29.306Z,92.51
2022-08-17T07:06:02.164Z,94.72
2022-08-17T07:08:38.013Z,93.74
2022-08-17T07:11:13.065Z,95.49
2022-08-17T07:13:51.410Z,93.72
2022-08-17T07:16:27.514Z,93.62
2022-08-17T07:19:00.554Z,93.91
2022-08-17T07:21:40.886Z,84.95
2022-08-17T07:24:29.610Z,80.78
2022-08-17T07:27:09.343Z,79.39
2022-08-17T07:29:42.984Z,79.73
2022-08-17T07:32:14.568Z,79.89
2022-08-17T07:35:11.137Z,78.97
2022-08-17T07:37:42.337Z,77.96
2022-08-17T07:40:28.695Z,77.47
2022-08-17T07:43:15.644Z,79.72
2022-08-17T07:46:11.582Z,78.63
2022-08-17T07:48:42.969Z,78.75
2022-08-17T07:51:26.992Z,78.81
2022-08-17T07:54:13.087Z,77.71
2022-08-17T07:56:46.896Z,78.20
2022-08-17T07:59:23.323Z,78.49
2022-08-17T08:02:19.091Z,77.63
2022-08-17T08:05:01.320Z,77.75
2022-08-17T08:07:36.421Z,77.04
2022-08-17T08:10:13.125Z,77.27
2022-08-17T08:12:45.146Z,78.46
2022-08-17T08:15:22.844Z,78.49
2022-08-17T08:17:55.425Z,76.58
2022-08-17T08:20:51.432Z,77.45
2022-08-17T08:23:29.548Z,79.62
2022-08-17T08:26:08.107Z,78.06
2022-08-17T08:28:43.459Z,78.06
2022-08-17T08:31:24.462Z,77.64
2022-08-17T08:34:05.575Z,77.74
2022-08-17T08:37:14.545Z,77.86
2022-08-17T08:39:47.924Z,77.58
2022-08-17T08:42:23.365Z,77.89
2022-08-17T08:45:04.145Z,76.91
2022-08-17T08:47:51.454Z,77.19
2022-08-17T08:50:37.429Z,77.54
2022-08-17T08:53:18.962Z,77.00
2022-08-17T08:55:56.368Z,77.63
2022-08-17T08:58:41.919Z,77.07
2022-08-17T09:01:19.288Z,76.53
2022-08-17T09:04:23.267Z,75.94
2022-08-17T09:07:01.384Z,76.68
2022-08-17T09:09:41.480Z,77.65
2022-08-17T09:12:19.563Z,75.74
2022-08-17T09:14:56.858Z,77.18
2022-08-17T09:17:35.595Z,75.92
2022-08-17T09:20:14.413Z,76.17
2022-08-17T09:23:03.962Z,76.69
2022-08-17T09:25:35.980Z,76.09
2022-08-17T09:28:10.364Z,76.63
2022-08-17T09:30:44.178Z,77.82
2022-08-17T09:33:17.727Z,76.80
2022-08-17T09:35:51.144Z,75.90
2022-08-17T09:38:32.191Z,76.18
2022-08-17T09:41:11.750Z,76.39
2022-08-17T09:43:47.925Z,77.54
2022-08-17T09:46:20.801Z,75.89
2022-08-17T09:48:55.352Z,77.29
2022-08-17T09:51:30.321Z,75.97
2022-08-17T09:54:15.136Z,77.08
2022-08-17T09:57:25.893Z,79.25
2022-08-17T09:59:58.441Z,77.57
2022-08-17T10:02:54.096Z,77.21
2022-08-17T10:05:25.978Z,76.65
2022-08-17T10:08:01.921Z,76.50
2022-08-17T10:10:38.264Z,75.94
2022-08-17T10:13:20.369Z,76.91
2022-08-17T10:16:01.566Z,76.92
2022-08-17T10:18:41.911Z,77.17
2022-08-17T10:21:26.338Z,76.50
2022-08-17T10:24:12.966Z,76.60
2022-08-17T10:26:56.881Z,77.15
2022-08-17T10:29:31.342Z,77.32
2022-08-17T10:32:33.073Z,76.94
2022-08-17T10:35:16.060Z,76.64
2022-08-17T10:37:56.489Z,77.48
2022-08-17T10:40:38.735Z,77.20
2022-08-17T10:43:22.845Z,77.16
2022-08-17T10:46:09.469Z,77.35
2022-08-17T10:49:25.533Z,78.40
2022-08-17T10:51:56.282Z,78.32
2022-08-17T10:54:45.535Z,77.88
2022-08-17T10:57:43.272Z,78.61
2022-08-17T11:00:39.492Z,77.91
2022-08-17T11:03:18.772Z,78.71
2022-08-17T11:05:55.742Z,78.25
2022-08-17T11:08:57.601Z,78.38
2022-08-17T11:11:54.366Z,78.67
2022-08-17T11:14:47.325Z,77.96
2022-08-17T11:17:25.457Z,79.33
2022-08-17T11:20:16.805Z,78.21
2022-08-17T11:23:28.010Z,79.60
2022-08-17T11:26:01.833Z,80.31
2022-08-17T11:28:35.917Z,79.60
2022-08-17T11:31:10.609Z,80.76
2022-08-17T11:34:01.336Z,79.35
2022-08-17T11:36:49.296Z,79.74
2022-08-17T11:39:45.019Z,79.85
2022-08-17T11:42:29.692Z,80.21
2022-08-17T11:45:00.872Z,79.95
2022-08-17T11:48:02.500Z,80.05
2022-08-17T11:51:00.141Z,80.11
2022-08-17T11:56:55.538Z,80.69
2022-08-17T11:59:59.695Z,80.29
2022-08-17T12:02:36.155Z,79.95
2022-08-17T12:05:27.527Z,79.83
2022-08-17T12:08:08.719Z,80.03
2022-08-17T12:10:54.910Z,81.18
2022-08-17T12:13:30.580Z,80.60
2022-08-17T12:16:10.191Z,80.62
2022-08-17T12:18:41.991Z,80.58
2022-08-17T12:21:20.546Z,81.22
2022-08-17T12:23:57.664Z,80.59
2022-08-17T12:26:33.079Z,80.47
2022-08-17T12:29:04.211Z,78.69
2022-08-17T12:31:38.427Z,79.00
2022-08-17T12:34:08.198Z,80.89
2022-08-17T12:36:38.367Z,80.35
2022-08-17T12:39:14.248Z,80.50
2022-08-17T12:41:50.326Z,81.39
2022-08-17T12:44:22.117Z,81.17
2022-08-17T12:46:55.550Z,79.92
2022-08-17T12:49:30.979Z,79.90
2022-08-17T12:52:07.004Z,78.83
2022-08-17T12:54:42.630Z,79.08
2022-08-17T12:57:18.866Z,80.67
2022-08-17T12:59:53.534Z,78.34
2022-08-17T13:02:33.264Z,77.67
2022-08-17T13:05:04.492Z,79.21
2022-08-17T13:07:39.023Z,76.53
2022-08-17T13:10:09.399Z,76.23
2022-08-17T13:12:41.986Z,77.47
2022-08-17T13:15:22.382Z,77.66
2022-08-17T13:18:00.021Z,76.75
2022-08-17T13:20:29.760Z,77.19
2022-08-17T13:23:01.096Z,75.46
2022-08-17T13:25:32.197Z,75.65
2022-08-17T13:28:04.668Z,76.50
2022-08-17T13:30:35.332Z,74.95
2022-08-17T13:33:43.441Z,76.09
2022-08-17T13:36:19.472Z,76.60
2022-08-17T13:39:08.623Z,76.32
2022-08-17T13:41:40.196Z,77.35
2022-08-17T13:44:37.726Z,76.51
2022-08-17T13:47:08.972Z,77.86
2022-08-17T13:49:41.963Z,77.51
2022-08-17T13:52:37.868Z,76.98
2022-08-17T13:55:12.084Z,77.91
2022-08-17T13:57:41.744Z,75.43
2022-08-17T14:00:21.026Z,76.23
2022-08-17T14:02:50.671Z,74.84
2022-08-17T14:05:20.713Z,76.19
2022-08-17T14:07:50.988Z,75.81
2022-08-17T14:10:21.132Z,75.04
2022-08-17T14:12:50.916Z,74.50
2022-08-17T14:15:56.389Z,74.75
2022-08-17T14:18:17.761Z,76.28
2022-08-17T14:20:47.563Z,75.68
2022-08-17T14:23:17.736Z,75.53
2022-08-17T14:25:48.683Z,74.60
2022-08-17T14:28:18.455Z,76.30
2022-08-17T14:30:50.723Z,73.91
2022-08-17T14:33:24.965Z,73.20
2022-08-17T14:35:55.948Z,72.44
2022-08-17T14:38:25.911Z,73.24
2022-08-17T14:40:55.959Z,73.42
2022-08-17T14:43:25.638Z,74.03
2022-08-17T14:45:58.484Z,73.67
2022-08-17T14:48:28.880Z,73.96
2022-08-17T14:50:59.020Z,73.23
2022-08-17T14:53:28.827Z,72.65
2022-08-17T14:55:58.492Z,72.28
2022-08-17T14:58:29.408Z,72.61
2022-08-17T15:01:01.906Z,74.14
2022-08-17T15:03:31.873Z,74.17
2022-08-17T15:06:02.696Z,73.63
2022-08-17T15:08:32.808Z,74.15
2022-08-17T15:11:04.567Z,74.52
2022-08-17T15:13:34.302Z,76.00
2022-08-17T15:16:08.565Z,77.01
2022-08-17T15:18:39.258Z,78.09
2022-08-17T15:21:10.226Z,77.31
2022-08-17T15:23:41.741Z,77.31
2022-08-17T15:26:14.030Z,78.52
2022-08-17T15:28:43.737Z,77.77
2022-08-17T15:31:32.014Z,78.04
2022-08-17T15:34:05.342Z,78.04
2022-08-17T15:36:37.797Z,78.93
2022-08-17T15:39:10.977Z,79.32
2022-08-17T15:41:40.643Z,77.94
2022-08-17T15:44:10.489Z,77.64
2022-08-17T15:46:43.173Z,78.40
2022-08-17T15:49:13.793Z,78.69
2022-08-17T15:51:43.489Z,78.88
2022-08-17T15:54:17.270Z,78.24
2022-08-17T15:56:52.464Z,77.60
2022-08-17T15:59:22.147Z,78.34
2022-08-17T16:03:14.921Z,77.83
2022-08-17T16:04:45.444Z,77.59
2022-08-17T16:07:17.939Z,78.45
2022-08-17T16:09:47.898Z,78.46
2022-08-17T16:12:19.517Z,78.64
2022-08-17T16:14:51.742Z,77.57
2022-08-17T16:17:40.042Z,77.90
2022-08-17T16:20:20.242Z,77.97
2022-08-17T16:22:52.195Z,77.81
2022-08-17T16:25:47.127Z,77.32
2022-08-17T16:28:15.003Z,77.53
2022-08-17T16:30:44.716Z,78.08
2022-08-17T16:33:17.851Z,76.30
2022-08-17T16:35:47.523Z,76.94
2022-08-17T16:38:17.227Z,76.72
2022-08-17T16:40:46.868Z,77.06
2022-08-17T16:43:16.777Z,76.84
2022-08-17T16:45:51.858Z,76.98
2022-08-17T16:48:24.502Z,76.70
2022-08-17T16:50:59.991Z,76.73
2022-08-17T16:53:33.959Z,76.24
2022-08-17T16:56:03.669Z,76.65
2022-08-17T16:58:33.398Z,77.84
2022-08-17T17:01:03.169Z,77.78
2022-08-17T17:03:35.619Z,78.08
2022-08-17T17:06:13.484Z,76.86
2022-08-17T17:08:48.395Z,76.84
2022-08-17T17:11:34.188Z,78.36
2022-08-17T17:14:05.717Z,78.48
2022-08-17T17:16:47.010Z,78.66
2022-08-17T17:19:34.547Z,78.77
2022-08-17T17:22:10.557Z,78.89
2022-08-17T17:24:55.327Z,78.75
2022-08-17T17:27:32.360Z,79.34
2022-08-17T17:30:08.847Z,79.51
2022-08-17T17:32:42.510Z,79.85
2022-08-17T17:35:20.446Z,80.15
2022-08-17T17:37:50.315Z,80.48
2022-08-17T17:40:36.023Z,79.88
2022-08-17T17:43:37.070Z,80.80
2022-08-17T17:46:27.351Z,80.65
2022-08-17T17:48:55.264Z,81.00
2022-08-17T17:52:08.550Z,80.59
2022-08-17T17:54:32.479Z,81.22
2022-08-17T17:57:06.026Z,81.43
2022-08-17T17:59:44.127Z,82.21
2022-08-17T18:02:37.001Z,80.99
2022-08-17T18:05:14.111Z,82.91
2022-08-17T18:07:50.972Z,81.63
2022-08-17T18:10:30.021Z,82.28
2022-08-17T18:13:08.095Z,82.76
2022-08-17T18:15:41.663Z,81.35
2022-08-17T18:18:44.575Z,82.16
2022-08-17T18:21:19.360Z,81.51
2022-08-17T18:23:56.114Z,81.75
2022-08-17T18:26:45.488Z,82.65
2022-08-17T18:29:37.585Z,82.37
2022-08-17T18:32:18.934Z,82.94
2022-08-17T18:34:50.308Z,83.06
2022-08-17T18:37:34.619Z,82.87
2022-08-17T18:40:27.804Z,82.78
2022-08-17T18:43:05.610Z,82.45
2022-08-17T18:45:38.815Z,83.14
2022-08-17T18:48:10.845Z,82.78
2022-08-17T18:50:43.585Z,82.87
2022-08-17T18:53:26.467Z,82.47
2022-08-17T18:56:18.989Z,82.75
2022-08-17T18:58:54.220Z,83.50
2022-08-17T19:01:48.838Z,83.49
2022-08-17T19:04:33.867Z,83.39
2022-08-17T19:07:14.144Z,83.56
2022-08-17T19:09:47.097Z,84.38
2022-08-17T19:12:27.478Z,84.11
2022-08-17T19:14:58.507Z,84.05
2022-08-17T19:17:33.179Z,84.46
2022-08-17T19:20:09.864Z,84.88
2022-08-17T19:23:08.398Z,84.97
2022-08-17T19:25:41.984Z,84.86
2022-08-17T19:28:22.211Z,84.76
2022-08-17T19:30:53.825Z,85.38
2022-08-17T19:33:23.583Z,85.59
2022-08-17T19:36:01.650Z,85.30
2022-08-17T19:38:43.455Z,85.63
2022-08-17T19:41:18.938Z,85.98
2022-08-17T19:43:59.894Z,85.85
2022-08-17T19:46:35.654Z,86.51
2022-08-17T19:49:10.151Z,86.55
2022-08-17T19:51:46.406Z,86.98
2022-08-17T19:54:20.509Z,87.18
2022-08-17T19:56:58.273Z,87.17
2022-08-17T19:59:51.629Z,87.25
2022-08-17T20:02:34.152Z,87.53
2022-08-17T20:05:08.851Z,87.33
2022-08-17T20:07:46.115Z,88.51
2022-08-17T20:10:23.693Z,88.42
2022-08-17T20:12:54.428Z,88.35
2022-08-17T20:15:30.859Z,88.26
2022-08-17T20:18:02.863Z,88.87
2022-08-17T20:20:36.554Z,88.83
2022-08-17T20:23:13.378Z,88.63
2022-08-17T20:25:48.276Z,89.95
2022-08-17T20:28:22.620Z,89.49
2022-08-17T20:30:57.337Z,89.63
2022-08-17T20:33:30.374Z,89.59
2022-08-17T20:36:08.375Z,90.21
2022-08-17T20:38:43.367Z,89.92
2022-08-17T20:41:16.373Z,90.36
2022-08-17T20:44:03.771Z,89.94
2022-08-17T20:46:54.936Z,90.34
2022-08-17T20:49:28.915Z,90.38
2022-08-17T20:52:02.955Z,90.35
2022-08-17T20:54:51.741Z,90.79
2022-08-17T20:57:47.445Z,91.40
2022-08-17T21:00:45.248Z,91.79
2022-08-17T21:03:50.187Z,91.54
2022-08-17T21:06:28.005Z,92.83
2022-08-17T21:09:02.210Z,92.35
2022-08-17T21:11:56.974Z,92.87
2022-08-17T21:14:59.687Z,92.50
2022-08-17T21:17:46.541Z,92.73
2022-08-17T21:20:32.355Z,92.78
2022-08-17T21:23:32.123Z,92.86
2022-08-17T21:26:15.704Z,92.95
2022-08-17T21:29:00.640Z,93.25
2022-08-17T21:31:36.890Z,93.44
2022-08-17T21:34:43.225Z,93.26
2022-08-17T21:37:32.346Z,94.01
2022-08-17T21:40:04.241Z,93.47
2022-08-17T21:42:39.029Z,93.74
2022-08-17T21:45:13.348Z,93.77
2022-08-17T21:47:45.268Z,93.89
2022-08-17T21:50:20.936Z,93.51
2022-08-17T21:52:54.039Z,93.95
2022-08-17T21:55:29.695Z,94.05
2022-08-17T21:58:14.100Z,94.11
2022-08-17T22:00:45.446Z,94.56
2022-08-17T22:03:25.974Z,95.16
2022-08-17T22:05:55.722Z,94.90
2022-08-17T22:08:28.861Z,95.24
2022-08-17T22:11:04.664Z,95.66
2022-08-17T22:13:41.224Z,95.35
2022-08-17T22:16:27.659Z,95.56
2022-08-17T22:18:59.289Z,95.56
2022-08-17T22:21:29.141Z,95.30
2022-08-17T22:24:05.157Z,95.49
2022-08-17T22:27:07.043Z,95.70
2022-08-17T22:29:57.818Z,96.16
2022-08-17T22:32:45.063Z,96.57
2022-08-17T22:35:35.380Z,97.30
2022-08-17T22:38:35.311Z,96.45
2022-08-17T22:41:30.239Z,96.65
2022-08-17T22:44:02.395Z,96.47
2022-08-17T22:46:44.366Z,96.56
2022-08-17T22:49:14.139Z,96.22
2022-08-17T22:51:43.901Z,96.85
2022-08-17T22:54:31.260Z,96.81
2022-08-17T22:57:15.123Z,96.80
2022-08-17T22:59:51.467Z,96.36
2022-08-17T23:02:26.553Z,96.44
2022-08-17T23:04:59.301Z,96.59
2022-08-17T23:07:28.990Z,96.94
2022-08-17T23:10:00.260Z,96.87
2022-08-17T23:12:29.992Z,97.19
2022-08-17T23:15:01.668Z,97.53
2022-08-17T23:17:37.352Z,97.48
2022-08-17T23:20:10.391Z,96.78
2022-08-17T23:22:51.748Z,97.19
2022-08-17T23:25:28.939Z,97.29
2022-08-17T23:28:01.439Z,96.69
2022-08-17T23:30:31.534Z,97.32
2022-08-17T23:33:06.837Z,97.20
2022-08-17T23:35:40.445Z,97.60
2022-08-17T23:38:11.978Z,97.51
2022-08-17T23:40:42.455Z,97.36
2022-08-17T23:43:24.412Z,96.96
2022-08-17T23:45:57.498Z,97.48
2022-08-17T23:48:35.592Z,97.64
2022-08-17T23:51:08.652Z,97.27
2022-08-17T23:53:39.178Z,97.77
2022-08-17T23:56:11.280Z,97.61
2022-08-17T23:58:42.579Z,97.76
